Time;durP1;ratioP1;P1;durP2;ratioP2;P2;SDS_P1;SDS_P2;PMS_P1;PMS_P2;Temp;Humidity;BMP_temperature;BMP_pressure;BME280_temperature;BME280_humidity;BME280_pressure;Samples;Min_cycle;Max_cycle;Signal;HPM_P1;HPM_P2
2023/11/12 00:00:36;;;;;;;2.70;1.58;;;;;;;3.83;100.00;97550.38;15263029;19;20011;-48
2023/11/12 00:06:01;;;;;;;2.72;1.45;;;;;;;3.83;100.00;97542.41;15267293;19;20006;-48
2023/11/12 00:11:26;;;;;;;1.75;1.50;;;;;;;3.82;100.00;97541.56;15264276;19;20022;-47
2023/11/12 00:16:54;;;;;;;2.03;1.40;;;;;;;3.81;100.00;97550.53;15266923;19;20649;-49
2023/11/12 00:22:20;;;;;;;1.67;1.30;;;;;;;3.78;100.00;97556.16;15270834;19;20022;-47
2023/11/12 00:27:46;;;;;;;1.23;1.00;;;;;;;3.72;100.00;97550.53;15010541;19;5001548;-48
2023/11/12 00:33:13;;;;;;;1.92;1.30;;;;;;;3.71;100.00;97544.38;15262445;19;20035;-51
2023/11/12 00:38:38;;;;;;;3.60;1.10;;;;;;;3.73;100.00;97550.41;15266852;19;20074;-48
2023/11/12 00:44:02;;;;;;;1.67;1.02;;;;;;;3.74;100.00;97556.56;15264091;19;20023;-49
2023/11/12 00:49:30;;;;;;;1.70;1.30;;;;;;;3.70;100.00;97554.16;15262668;19;20622;-49
2023/11/12 00:54:54;;;;;;;2.78;1.33;;;;;;;3.68;100.00;97561.47;15263634;19;20074;-50
2023/11/12 01:00:20;;;;;;;2.67;1.40;;;;;;;3.65;100.00;97563.56;15264316;19;20082;-48
2023/11/12 01:05:48;;;;;;;1.55;1.30;;;;;;;3.59;100.00;97554.31;15251766;19;20779;-50
2023/11/12 01:11:14;;;;;;;1.67;1.13;;;;;;;3.53;100.00;97553.03;15256999;19;20040;-49
2023/11/12 01:16:40;;;;;;;3.40;1.30;;;;;;;3.54;100.00;97560.03;15265696;19;20010;-50
2023/11/12 01:22:08;;;;;;;1.40;1.10;;;;;;;3.60;100.00;97571.97;15275715;19;20022;-51
2023/11/12 01:27:32;;;;;;;2.92;1.20;;;;;;;3.64;100.00;97573.38;15280235;19;20018;-50
2023/11/12 01:32:57;;;;;;;2.28;1.10;;;;;;;3.68;100.00;97572.13;15280080;19;20426;-49
2023/11/12 01:38:24;;;;;;;2.33;1.20;;;;;;;3.70;100.00;97577.31;15276383;19;20015;-49
2023/11/12 01:43:49;;;;;;;2.40;1.33;;;;;;;3.74;100.00;97577.88;15275774;19;20029;-49
2023/11/12 01:49:13;;;;;;;1.80;1.30;;;;;;;3.75;100.00;97564.44;15272578;19;20379;-50
2023/11/12 01:54:42;;;;;;;1.10;1.00;;;;;;;3.75;100.00;97561.78;15274358;19;20082;-50
2023/11/12 02:00:10;;;;;;;3.10;1.50;;;;;;;3.73;100.00;97546.88;15276151;19;20019;-52
2023/11/12 02:05:36;;;;;;;2.05;1.30;;;;;;;3.71;100.00;97544.38;15272186;19;20010;-49
2023/11/12 02:11:07;;;;;;;1.30;1.20;;;;;;;3.74;100.00;97553.91;15266695;19;20021;-51
2023/11/12 02:16:33;;;;;;;1.35;1.20;;;;;;;3.73;100.00;97541.56;15274408;19;20018;-51
2023/11/12 02:21:57;;;;;;;1.90;1.30;;;;;;;3.75;100.00;97539.59;15273787;19;20802;-47
2023/11/12 02:27:25;;;;;;;2.03;1.23;;;;;;;3.78;100.00;97534.00;15269676;19;20486;-50
2023/11/12 02:32:50;;;;;;;3.67;1.50;;;;;;;3.81;100.00;97541.72;15272700;19;20786;-48
2023/11/12 02:38:16;;;;;;;1.30;1.20;;;;;;;3.84;100.00;97554.75;15272255;19;20423;-50
2023/11/12 02:43:43;;;;;;;1.70;1.20;;;;;;;3.88;100.00;97550.81;15263729;19;20078;-48
2023/11/12 02:49:39;;;;;;;1.88;1.20;;;;;;;3.91;100.00;97539.91;15270843;19;20022;-50
2023/11/12 02:55:05;;;;;;;1.40;1.23;;;;;;;3.93;100.00;97543.25;15270774;19;20022;-48
2023/11/12 03:00:33;;;;;;;3.67;1.13;;;;;;;3.98;100.00;97545.50;15271764;19;20349;-47
2023/11/12 03:05:57;;;;;;;1.30;1.20;;;;;;;4.00;100.00;97544.38;15271958;19;20027;-48
2023/11/12 03:11:25;;;;;;;1.90;1.20;;;;;;;4.03;100.00;97553.06;15268648;19;20014;-48
2023/11/12 03:16:55;;;;;;;2.47;1.20;;;;;;;4.07;100.00;97547.31;15266845;19;20011;-48
2023/11/12 03:22:21;;;;;;;1.50;1.10;;;;;;;4.10;100.00;97548.84;15271831;19;20089;-49
2023/11/12 03:27:46;;;;;;;1.55;1.02;;;;;;;4.13;100.00;97553.91;15256482;19;20010;-49
2023/11/12 03:33:14;;;;;;;1.15;1.00;;;;;;;4.18;100.00;97548.97;15268487;19;20015;-47
2023/11/12 03:38:38;;;;;;;2.10;1.13;;;;;;;4.20;100.00;97549.66;15267392;19;20021;-48
2023/11/12 03:44:03;;;;;;;1.30;1.05;;;;;;;4.21;100.00;97551.34;15251083;19;20018;-48
2023/11/12 03:49:30;;;;;;;1.70;1.38;;;;;;;4.23;100.00;97554.72;15257739;19;20633;-48
2023/11/12 03:54:55;;;;;;;2.45;1.50;;;;;;;4.18;100.00;97535.63;15263191;19;20348;-49
2023/11/12 04:00:24;;;;;;;1.35;1.17;;;;;;;4.16;100.00;97532.28;15266341;19;20011;-49
2023/11/12 04:05:52;;;;;;;1.55;1.30;;;;;;;4.14;100.00;97540.41;15262278;19;20006;-48
2023/11/12 04:11:17;;;;;;;1.73;1.10;;;;;;;4.15;100.00;97533.28;15263141;19;20487;-48
2023/11/12 04:16:43;;;;;;;1.20;1.10;;;;;;;4.19;100.00;97532.00;15265837;19;20021;-51
2023/11/12 04:22:11;;;;;;;1.60;1.50;;;;;;;4.20;100.00;97539.00;15262194;19;20014;-48
2023/11/12 04:27:37;;;;;;;3.28;1.50;;;;;;;4.18;100.00;97550.81;15265927;19;20351;-48
2023/11/12 04:33:01;;;;;;;2.42;1.30;;;;;;;4.16;100.00;97553.63;15259561;19;20053;-48
2023/11/12 04:38:29;;;;;;;3.78;1.35;;;;;;;4.12;100.00;97557.53;15262901;19;20021;-49
2023/11/12 04:44:00;;;;;;;2.92;1.38;;;;;;;4.06;100.00;97552.78;15266668;19;20018;-48
2023/11/12 04:49:25;;;;;;;1.40;1.30;;;;;;;3.97;100.00;97549.97;15263708;19;20022;-50
2023/11/12 04:54:57;;;;;;;2.05;1.30;;;;;;;3.88;100.00;97545.50;15275794;19;20014;-49
2023/11/12 05:00:22;;;;;;;1.45;1.35;;;;;;;3.79;100.00;97557.81;15282708;19;20016;-48
2023/11/12 05:05:48;;;;;;;1.10;1.00;;;;;;;3.72;100.00;97546.06;15275941;19;20042;-49
2023/11/12 05:11:16;;;;;;;1.95;1.20;;;;;;;3.68;100.00;97550.84;15277110;19;20739;-50
2023/11/12 05:16:41;;;;;;;1.30;1.20;;;;;;;3.68;100.00;97553.50;15280221;19;20018;-49
2023/11/12 05:22:07;;;;;;;1.85;1.40;;;;;;;3.66;100.00;97563.44;15275518;19;20496;-48
2023/11/12 05:27:34;;;;;;;3.83;1.30;;;;;;;3.64;100.00;97567.22;15278495;19;20018;-51
2023/11/12 05:33:00;;;;;;;1.90;1.50;;;;;;;3.58;100.00;97557.97;15276560;19;20010;-49
2023/11/12 05:38:19;;;;;;;1.63;1.40;;;;;;;3.55;100.00;97567.06;15279059;19;20037;-49
2023/11/12 05:43:46;;;;;;;2.15;1.60;;;;;;;3.50;100.00;97563.13;15277570;19;20023;-50
2023/11/12 05:49:11;;;;;;;1.60;1.50;;;;;;;3.45;100.00;97570.72;15276497;19;20017;-48
2023/11/12 05:54:36;;;;;;;2.30;1.60;;;;;;;3.40;100.00;97573.78;15271851;19;20014;-50
2023/11/12 06:00:04;;;;;;;1.88;1.70;;;;;;;3.37;100.00;97574.03;15277406;19;20128;-52
2023/11/12 06:05:30;;;;;;;2.65;1.90;;;;;;;3.32;100.00;97579.78;15271436;19;20025;-51
2023/11/12 06:10:56;;;;;;;2.40;1.70;;;;;;;3.29;100.00;97577.38;15275031;19;20017;-49
2023/11/12 06:16:23;;;;;;;3.38;1.85;;;;;;;3.29;100.00;97573.91;15275992;19;20356;-50
2023/11/12 06:21:48;;;;;;;1.60;1.50;;;;;;;3.30;100.00;97592.38;15276976;19;20025;-48
2023/11/12 06:27:13;;;;;;;2.22;1.75;;;;;;;3.31;100.00;97599.41;15267585;19;20017;-49
2023/11/12 06:32:41;;;;;;;2.15;1.70;;;;;;;3.26;100.00;97590.13;15273067;19;20014;-46
2023/11/12 06:38:05;;;;;;;2.20;1.80;;;;;;;3.24;100.00;97595.56;15274655;19;20051;-48
2023/11/12 06:43:36;;;;;;;2.88;1.60;;;;;;;3.21;100.00;97598.53;15272168;19;20014;-49
2023/11/12 06:49:04;;;;;;;1.98;1.70;;;;;;;3.21;100.00;97601.19;15274098;19;20082;-47
2023/11/12 06:54:29;;;;;;;1.98;1.80;;;;;;;3.18;100.00;97612.09;15272906;19;20031;-49
2023/11/12 06:59:54;;;;;;;2.03;1.90;;;;;;;3.16;100.00;97619.38;15268857;19;20018;-48
2023/11/12 07:05:22;;;;;;;2.92;1.73;;;;;;;3.16;100.00;97630.00;15271255;19;20046;-52
2023/11/12 07:10:47;;;;;;;1.92;1.48;;;;;;;3.17;100.00;97627.22;15269219;19;20026;-52
2023/11/12 07:16:12;;;;;;;3.30;1.63;;;;;;;3.22;100.00;97638.31;15265950;19;20026;-51
2023/11/12 07:21:43;;;;;;;1.65;1.40;;;;;;;3.34;100.00;97643.53;15272009;19;20017;-51
2023/11/12 07:27:07;;;;;;;2.72;1.67;;;;;;;3.45;100.00;97653.25;15271867;19;20016;-50
2023/11/12 07:32:32;;;;;;;3.95;1.73;;;;;;;3.58;100.00;97650.34;15264918;19;20731;-49
2023/11/12 07:38:00;;;;;;;3.22;1.58;;;;;;;3.67;100.00;97655.69;15268866;19;20020;-52
2023/11/12 07:43:25;;;;;;;1.63;1.52;;;;;;;3.81;100.00;97656.28;15269520;19;20015;-50
2023/11/12 07:48:52;;;;;;;2.42;1.75;;;;;;;3.91;100.00;97657.13;15269752;19;20018;-52
2023/11/12 07:54:20;;;;;;;2.95;1.88;;;;;;;4.04;100.00;97653.38;15266964;19;20086;-49
2023/11/12 07:59:44;;;;;;;1.77;1.40;;;;;;;4.20;100.00;97655.47;15266688;19;20018;-49
2023/11/12 08:05:12;;;;;;;2.03;1.50;;;;;;;4.28;100.00;97661.81;15261333;19;20017;-49
2023/11/12 08:10:41;;;;;;;2.97;2.00;;;;;;;4.38;100.00;97668.94;15267081;19;20018;-49
2023/11/12 08:16:09;;;;;;;3.30;1.50;;;;;;;4.45;100.00;97664.72;15262759;19;20022;-50
2023/11/12 08:21:34;;;;;;;1.50;1.40;;;;;;;4.50;100.00;97678.50;15266543;19;20021;-51
2023/11/12 08:27:04;;;;;;;2.40;1.60;;;;;;;4.55;100.00;97678.91;15286384;19;20488;-52
2023/11/12 08:32:30;;;;;;;2.10;1.58;;;;;;;4.65;100.00;97686.91;15297082;19;20031;-49
2023/11/12 08:37:55;;;;;;;2.00;1.30;;;;;;;4.78;100.00;97687.47;15288768;19;20014;-50
2023/11/12 08:43:29;;;;;;;2.17;1.23;;;;;;;4.88;100.00;97689.25;15296220;19;20014;-49
2023/11/12 08:48:54;;;;;;;2.42;1.30;;;;;;;4.96;100.00;97683.22;15296313;19;20082;-49
2023/11/12 08:54:18;;;;;;;1.63;1.27;;;;;;;5.04;100.00;97688.66;15293834;19;20018;-54
2023/11/12 08:59:46;;;;;;;2.25;1.35;;;;;;;5.13;100.00;97682.44;15294964;19;20019;-51
2023/11/12 09:05:10;;;;;;;1.88;1.33;;;;;;;5.23;100.00;97693.94;15292645;19;20048;-52
2023/11/12 09:10:35;;;;;;;2.08;1.38;;;;;;;5.35;100.00;97705.31;15289895;19;20511;-49
2023/11/12 09:16:04;;;;;;;1.50;1.40;;;;;;;5.44;100.00;97714.28;15290855;19;20033;-52
2023/11/12 09:21:33;;;;;;;1.88;1.40;;;;;;;5.54;100.00;97706.19;15293967;19;20383;-51
2023/11/12 09:26:58;;;;;;;1.95;1.30;;;;;;;5.61;100.00;97703.78;15294237;19;20043;-51
2023/11/12 09:32:26;;;;;;;2.90;1.15;;;;;;;5.70;100.00;97710.94;15291599;19;20427;-51
2023/11/12 09:37:51;;;;;;;4.13;1.50;;;;;;;5.76;100.00;97699.63;15283263;19;20015;-52
2023/11/12 09:43:17;;;;;;;1.48;1.20;;;;;;;5.80;100.00;97702.84;15272165;19;20033;-51
2023/11/12 09:48:45;;;;;;;1.70;1.10;;;;;;;5.84;100.00;97686.38;15277387;19;20035;-53
2023/11/12 09:54:12;;;;;;;0.90;0.80;;;;;;;5.93;100.00;97698.00;15275787;19;20134;-55
2023/11/12 09:59:39;;;;;;;2.08;1.17;;;;;;;6.00;100.00;97682.22;15277448;19;20011;-54
2023/11/12 10:05:10;;;;;;;1.83;1.15;;;;;;;6.09;100.00;97681.31;15273898;19;20022;-49
2023/11/12 10:10:37;;;;;;;1.20;1.00;;;;;;;6.16;100.00;97685.09;15278403;19;20018;-54
2023/11/12 10:16:02;;;;;;;2.45;1.00;;;;;;;6.24;100.00;97678.13;15266316;19;20430;-51
2023/11/12 10:21:29;;;;;;;2.03;1.25;;;;;;;6.32;100.00;97676.38;15275837;19;20028;-51
2023/11/12 10:26:56;;;;;;;1.33;1.10;;;;;;;6.38;100.00;97677.59;15274264;19;20452;-50
2023/11/12 10:32:32;;;;;;;1.95;1.00;;;;;;;6.51;100.00;97676.38;15271273;19;20010;-49
2023/11/12 10:38:07;;;;;;;1.90;1.10;;;;;;;6.61;100.00;97669.09;15273909;19;20695;-51
2023/11/12 10:43:33;;;;;;;2.92;1.35;;;;;;;6.74;100.00;97664.19;15270705;19;20074;-53
2023/11/12 10:49:01;;;;;;;2.15;1.00;;;;;;;6.81;100.00;97664.41;15265900;19;20090;-51
2023/11/12 10:54:30;;;;;;;1.45;1.10;;;;;;;6.79;100.00;97659.19;15272157;19;20018;-55
2023/11/12 10:59:58;;;;;;;2.05;1.20;;;;;;;6.79;100.00;97661.88;15272395;19;20026;-52
2023/11/12 11:05:24;;;;;;;1.67;1.00;;;;;;;6.79;100.00;97659.19;15269602;19;20020;-58
2023/11/12 11:10:52;;;;;;;1.13;0.90;;;;;;;6.82;100.00;97654.53;15272247;19;20018;-52
2023/11/12 11:16:47;;;;;;;0.98;0.82;;;;;;;6.82;100.00;97643.81;15261861;19;20019;-52
2023/11/12 11:22:32;;;;;;;1.00;0.90;;;;;;;6.83;100.00;97645.50;15268358;19;20015;-53
2023/11/12 11:28:25;;;;;;;2.85;1.10;;;;;;;6.88;100.00;97645.88;15270852;19;20019;-54
2023/11/12 11:33:59;;;;;;;1.30;0.80;;;;;;;6.94;100.00;97643.38;15268176;19;20505;-53
2023/11/12 11:39:26;;;;;;;1.02;0.90;;;;;;;7.04;100.00;97627.22;15269952;19;20033;-52
2023/11/12 11:44:54;;;;;;;1.60;1.10;;;;;;;7.16;100.00;97621.59;15268937;19;20025;-48
2023/11/12 11:50:43;;;;;;;1.30;1.13;;;;;;;7.27;100.00;97612.47;15265575;19;20010;-49
2023/11/12 11:56:14;;;;;;;1.50;1.00;;;;;;;7.33;100.00;97595.72;15268802;19;20010;-55
2023/11/12 12:01:53;;;;;;;1.50;1.00;;;;;;;7.34;100.00;97595.59;15262682;19;20032;-53
2023/11/12 12:07:26;;;;;;;1.75;1.10;;;;;;;7.33;100.00;97588.53;15265251;19;20022;-54
2023/11/12 12:12:53;;;;;;;1.50;1.08;;;;;;;7.32;100.00;97584.19;15268552;19;20025;-53
2023/11/12 12:18:25;;;;;;;2.55;0.90;;;;;;;7.34;100.00;97576.81;15263530;19;20022;-52
2023/11/12 12:23:50;;;;;;;1.45;0.90;;;;;;;7.38;100.00;97575.47;14751521;19;10000037;-51
2023/11/12 12:29:16;;;;;;;1.77;0.95;;;;;;;7.40;100.00;97570.81;15263089;19;20021;-49
2023/11/12 12:34:56;;;;;;;1.23;1.00;;;;;;;7.43;100.00;97568.81;15262660;19;20491;-53
2023/11/12 12:40:28;;;;;;;2.28;1.23;;;;;;;7.44;100.00;97574.00;15268549;19;20078;-50
2023/11/12 12:46:05;;;;;;;1.83;1.00;;;;;;;7.43;100.00;97564.28;15263204;19;20098;-48
2023/11/12 12:51:34;;;;;;;1.33;1.02;;;;;;;7.40;100.00;97565.44;15266924;19;20077;-53
2023/11/12 12:56:59;;;;;;;2.15;1.00;;;;;;;7.45;100.00;97556.09;15259819;19;20014;-50
2023/11/12 13:02:25;;;;;;;1.17;1.00;;;;;;;7.49;100.00;97558.28;15263253;19;20057;-53
2023/11/12 13:07:53;;;;;;;1.65;0.90;;;;;;;7.48;100.00;97561.97;15261933;19;20011;-55
2023/11/12 13:13:21;;;;;;;1.60;1.00;;;;;;;7.45;100.00;97554.22;15268665;19;20039;-52
2023/11/12 13:18:47;;;;;;;1.17;1.00;;;;;;;7.48;100.00;97558.41;15277624;19;20025;-52
2023/11/12 13:24:15;;;;;;;1.70;0.90;;;;;;;7.48;100.00;97561.09;15269859;19;20018;-51
2023/11/12 13:29:41;;;;;;;0.90;0.50;;;;;;;7.39;100.00;97558.41;15272397;19;20468;-55
2023/11/12 13:35:08;;;;;;;0.90;0.50;;;;;;;7.33;100.00;97545.66;15272276;19;20082;-50
2023/11/12 13:40:39;;;;;;;1.10;0.57;;;;;;;7.31;100.00;97547.66;15275767;19;20015;-50
2023/11/12 13:46:12;;;;;;;3.22;0.65;;;;;;;7.31;100.00;97546.81;15266779;19;20027;-51
2023/11/12 13:51:41;;;;;;;2.00;0.80;;;;;;;7.31;100.00;97549.50;15272693;19;20017;-47
2023/11/12 13:57:08;;;;;;;2.08;1.65;;;;;;;7.29;100.00;97544.31;15275784;19;20055;-50
2023/11/12 14:02:34;;;;;;;1.02;0.80;;;;;;;7.26;100.00;97549.97;15268099;19;20011;-52
2023/11/12 14:07:59;;;;;;;1.25;0.90;;;;;;;7.23;100.00;97550.31;15275559;19;20022;-52
2023/11/12 14:13:33;;;;;;;0.95;0.70;;;;;;;7.20;100.00;97556.81;15274975;19;20014;-45
2023/11/12 14:19:03;;;;;;;1.80;1.05;;;;;;;7.16;100.00;97552.81;15274754;19;20772;-47
2023/11/12 14:24:29;;;;;;;1.05;0.85;;;;;;;7.12;100.00;97559.47;15268178;19;20053;-49
2023/11/12 14:29:57;;;;;;;1.05;0.60;;;;;;;7.08;100.00;97563.47;15272305;19;20014;-48
2023/11/12 14:35:22;;;;;;;1.33;0.73;;;;;;;7.04;100.00;97564.81;15266497;19;20019;-48
2023/11/12 14:40:47;;;;;;;1.98;0.57;;;;;;;7.00;100.00;97583.00;15276628;19;20014;-47
2023/11/12 14:46:20;;;;;;;2.08;0.80;;;;;;;6.97;100.00;97577.13;15269469;19;20035;-52
2023/11/12 14:51:46;;;;;;;0.90;0.73;;;;;;;6.92;100.00;97586.50;15274185;19;20039;-48
2023/11/12 14:57:11;;;;;;;3.25;0.90;;;;;;;6.88;100.00;97584.31;15270516;19;20019;-52
2023/11/12 15:02:40;;;;;;;1.10;0.73;;;;;;;6.82;100.00;97585.75;15266367;19;20532;-52
2023/11/12 15:08:04;;;;;;;1.05;0.80;;;;;;;6.78;100.00;97595.94;15269873;19;20025;-54
2023/11/12 15:13:29;;;;;;;1.95;1.00;;;;;;;6.74;100.00;97599.94;15265450;19;20017;-49
2023/11/12 15:18:56;;;;;;;1.75;0.88;;;;;;;6.71;100.00;97599.41;15268816;19;20023;-49
2023/11/12 15:24:22;;;;;;;0.80;0.80;;;;;;;6.68;100.00;97600.56;15267685;19;20024;-52
2023/11/12 15:29:46;;;;;;;2.08;1.00;;;;;;;6.63;100.00;97603.72;15265047;19;20025;-47
2023/11/12 15:35:16;;;;;;;0.63;0.63;;;;;;;6.59;100.00;97601.50;15265681;19;20006;-52
2023/11/12 15:40:41;;;;;;;1.65;0.90;;;;;;;6.54;100.00;97606.47;15271107;19;20017;-52
2023/11/12 15:46:06;;;;;;;0.98;0.82;;;;;;;6.52;100.00;97595.94;15262253;19;20015;-53
2023/11/12 15:51:34;;;;;;;1.88;1.15;;;;;;;6.50;100.00;97608.63;15264438;19;20500;-51
2023/11/12 15:57:02;;;;;;;2.47;1.52;;;;;;;6.47;100.00;97609.78;15265808;19;20093;-50
2023/11/12 16:02:28;;;;;;;2.08;1.70;;;;;;;6.45;100.00;97610.94;15265973;19;20724;-53
2023/11/12 16:07:55;;;;;;;1.98;1.30;;;;;;;6.43;100.00;97616.44;15260981;19;21293;-48
2023/11/12 16:13:20;;;;;;;2.15;1.42;;;;;;;6.37;100.00;97609.03;15265505;19;20107;-48
2023/11/12 16:18:46;;;;;;;1.98;1.23;;;;;;;6.35;100.00;97616.38;15264879;19;20019;-49
2023/11/12 16:24:15;;;;;;;1.20;1.10;;;;;;;6.32;100.00;97617.53;15263350;19;20020;-47
2023/11/12 16:29:40;;;;;;;3.05;1.17;;;;;;;6.30;100.00;97624.00;15263526;19;20018;-48
2023/11/12 16:35:06;;;;;;;1.63;1.10;;;;;;;6.25;100.00;97621.78;15261749;19;20043;-50
2023/11/12 16:40:34;;;;;;;1.30;0.90;;;;;;;6.21;100.00;97615.09;15259461;19;20850;-50
2023/11/12 16:45:58;;;;;;;1.40;1.10;;;;;;;6.19;100.00;97618.88;15263623;19;20074;-52
2023/11/12 16:51:23;;;;;;;1.80;1.20;;;;;;;6.17;100.00;97619.88;15279745;19;20359;-49
2023/11/12 16:56:51;;;;;;;1.15;1.05;;;;;;;6.14;100.00;97628.22;15275276;19;20717;-52
2023/11/12 17:02:19;;;;;;;1.63;1.20;;;;;;;6.13;100.00;97636.38;15297890;19;20022;-50
2023/11/12 17:07:44;;;;;;;1.92;1.17;;;;;;;6.11;100.00;97641.06;15277557;19;20022;-51
2023/11/12 17:13:12;;;;;;;2.13;1.35;;;;;;;6.09;100.00;97643.88;15270010;19;20086;-49
2023/11/12 17:18:37;;;;;;;2.63;1.77;;;;;;;6.08;100.00;97652.91;15275295;19;20753;-49
2023/11/12 17:24:02;;;;;;;2.45;1.80;;;;;;;6.06;100.00;97657.53;15271441;19;20356;-47
2023/11/12 17:29:30;;;;;;;2.38;1.80;;;;;;;6.06;100.00;97668.25;15276843;19;20420;-47
2023/11/12 17:34:56;;;;;;;1.83;1.58;;;;;;;6.04;100.00;97667.56;15273518;19;20014;-47
2023/11/12 17:40:21;;;;;;;2.42;1.70;;;;;;;6.03;100.00;97673.06;15276662;19;20800;-48
2023/11/12 17:45:48;;;;;;;2.25;1.77;;;;;;;6.01;100.00;97678.56;15264828;19;20476;-50
2023/11/12 17:51:14;;;;;;;3.22;2.22;;;;;;;6.01;100.00;97684.75;15278296;19;20010;-49
2023/11/12 17:56:38;;;;;;;2.17;1.70;;;;;;;6.00;100.00;97684.91;15272675;19;20039;-51
2023/11/12 18:02:09;;;;;;;2.15;1.60;;;;;;;6.01;100.00;97692.75;15273637;19;20014;-51
2023/11/12 18:07:34;;;;;;;3.03;1.30;;;;;;;6.00;100.00;97683.06;15277275;19;20006;-47
2023/11/12 18:12:59;;;;;;;1.63;1.38;;;;;;;5.99;100.00;97680.50;15273511;19;20029;-48
2023/11/12 18:18:27;;;;;;;4.20;1.30;;;;;;;5.97;100.00;97678.00;15248579;19;20015;-50
2023/11/12 18:23:53;;;;;;;2.28;1.63;;;;;;;5.96;100.00;97686.16;15273260;19;20056;-49
2023/11/12 18:29:18;;;;;;;4.05;1.50;;;;;;;5.94;100.00;97696.19;15271782;19;20018;-48
2023/11/12 18:34:50;;;;;;;2.35;1.10;;;;;;;5.91;100.00;97691.94;15274374;19;20371;-50
2023/11/12 18:40:17;;;;;;;1.20;1.10;;;;;;;5.92;100.00;97690.13;15274005;19;20535;-50
2023/11/12 18:45:43;;;;;;;2.85;1.30;;;;;;;5.91;100.00;97696.47;15267435;19;20483;-52
2023/11/12 18:51:13;;;;;;;1.30;1.15;;;;;;;5.90;100.00;97703.63;15268373;19;20010;-46
2023/11/12 18:56:38;;;;;;;1.63;1.08;;;;;;;5.89;100.00;97698.44;15269495;19;20014;-50
2023/11/12 19:02:02;;;;;;;1.40;1.10;;;;;;;5.90;100.00;97718.84;15269492;19;20018;-47
2023/11/12 19:07:29;;;;;;;4.72;2.20;;;;;;;5.88;100.00;97727.00;15268255;19;20074;-49
2023/11/12 19:12:54;;;;;;;3.33;2.30;;;;;;;5.90;100.00;97734.88;15266388;19;20018;-53
2023/11/12 19:18:20;;;;;;;2.20;1.95;;;;;;;5.90;100.00;97725.03;15270809;19;20030;-48
2023/11/12 19:23:47;;;;;;;1.63;1.48;;;;;;;5.89;100.00;97728.69;15260214;19;20356;-50
2023/11/12 19:29:14;;;;;;;1.95;1.50;;;;;;;5.89;100.00;97735.88;15271523;19;20015;-49
2023/11/12 19:34:39;;;;;;;2.28;1.50;;;;;;;5.88;100.00;97752.91;15270568;19;20341;-47
2023/11/12 19:40:07;;;;;;;1.58;1.30;;;;;;;5.84;100.00;97752.38;15268161;19;20044;-49
2023/11/12 19:45:39;;;;;;;2.42;1.42;;;;;;;5.84;100.00;97757.72;15266552;19;20014;-48
2023/11/12 19:51:04;;;;;;;1.43;1.07;;;;;;;5.83;100.00;97748.00;15269055;19;20018;-49
2023/11/12 19:56:31;;;;;;;2.20;1.10;;;;;;;5.85;100.00;97752.19;15258330;19;20345;-46
2023/11/12 20:01:56;;;;;;;1.10;0.90;;;;;;;5.82;100.00;97751.66;15268254;19;20862;-46
2023/11/12 20:07:21;;;;;;;0.93;0.80;;;;;;;5.83;100.00;97756.84;15267495;19;20014;-49
2023/11/12 20:12:49;;;;;;;2.47;1.00;;;;;;;5.88;100.00;97752.91;15267869;19;20487;-48
2023/11/12 20:18:15;;;;;;;1.05;0.80;;;;;;;5.91;100.00;97768.66;15263388;19;20292;-48
2023/11/12 20:23:44;;;;;;;1.38;0.90;;;;;;;5.95;100.00;97776.22;15263966;19;20499;-53
2023/11/12 20:29:13;;;;;;;1.50;0.90;;;;;;;5.93;100.00;97780.03;15259114;19;20082;-52
2023/11/12 20:34:40;;;;;;;1.10;0.90;;;;;;;5.90;100.00;97793.69;15264662;19;20027;-52
2023/11/12 20:40:08;;;;;;;1.58;0.80;;;;;;;5.92;100.00;97807.78;15263471;19;20018;-56
2023/11/12 20:45:36;;;;;;;1.30;1.00;;;;;;;5.89;100.00;97803.53;15255807;19;20010;-50
2023/11/12 20:51:02;;;;;;;1.30;0.80;;;;;;;5.88;100.00;97807.19;15264214;19;20097;-52
2023/11/12 20:56:28;;;;;;;1.02;0.93;;;;;;;5.84;100.00;97822.69;15266286;19;20014;-53
2023/11/12 21:01:57;;;;;;;1.13;0.98;;;;;;;5.85;100.00;97821.72;15258743;19;20082;-53
2023/11/12 21:07:39;;;;;;;1.50;1.00;;;;;;;5.85;100.00;97823.53;15263307;19;20025;-56
2023/11/12 21:13:04;;;;;;;1.67;1.00;;;;;;;5.83;100.00;97818.34;15261109;19;20440;-53
2023/11/12 21:18:39;;;;;;;1.67;1.10;;;;;;;5.80;100.00;97793.72;15260781;19;20014;-52
2023/11/12 21:24:05;;;;;;;2.78;1.63;;;;;;;5.75;100.00;97791.50;15261654;19;20021;-57
2023/11/12 21:29:30;;;;;;;1.60;1.30;;;;;;;5.74;100.00;97780.97;15262550;19;20025;-52
2023/11/12 21:34:57;;;;;;;2.28;1.50;;;;;;;5.72;100.00;97770.41;15263941;19;20035;-54
2023/11/12 21:40:22;;;;;;;3.25;1.55;;;;;;;5.68;100.00;97750.31;15276472;19;20022;-50
2023/11/12 21:45:48;;;;;;;2.10;1.20;;;;;;;5.64;100.00;97755.13;15272737;19;20019;-55
2023/11/12 21:51:17;;;;;;;3.72;1.45;;;;;;;5.58;100.00;97757.53;15276041;19;20539;-53
2023/11/12 21:56:43;;;;;;;2.15;1.30;;;;;;;5.53;100.00;97771.31;15274159;19;20011;-51
2023/11/12 22:02:07;;;;;;;3.40;2.25;;;;;;;5.51;100.00;97792.84;15274885;19;20090;-52
2023/11/12 22:07:35;;;;;;;3.13;1.58;;;;;;;5.49;100.00;97810.84;15271564;19;20014;-54
2023/11/12 22:13:01;;;;;;;1.80;1.33;;;;;;;5.49;100.00;97834.06;15273127;19;20017;-55
2023/11/12 22:18:27;;;;;;;1.98;1.50;;;;;;;5.50;100.00;97830.41;15270323;19;20086;-54
2023/11/12 22:23:54;;;;;;;2.47;1.40;;;;;;;5.48;100.00;97837.72;15270835;19;20021;-52
2023/11/12 22:29:21;;;;;;;3.08;1.77;;;;;;;5.47;100.00;97846.69;15269761;19;20024;-54
2023/11/12 22:34:47;;;;;;;2.22;1.40;;;;;;;5.49;100.00;97850.91;15269516;19;20018;-53
2023/11/12 22:40:15;;;;;;;2.25;1.40;;;;;;;5.54;100.00;97845.13;15269976;19;20035;-52
2023/11/12 22:45:46;;;;;;;1.58;1.10;;;;;;;5.57;100.00;97841.34;15264612;19;20085;-53
2023/11/12 22:51:11;;;;;;;2.47;1.35;;;;;;;5.61;100.00;97848.06;15267384;19;20069;-53
2023/11/12 22:56:39;;;;;;;2.55;1.50;;;;;;;5.61;100.00;97830.22;15270541;19;20017;-50
2023/11/12 23:02:06;;;;;;;3.13;1.67;;;;;;;5.60;100.00;97841.91;15271535;19;20014;-56
2023/11/12 23:07:30;;;;;;;2.55;1.65;;;;;;;5.59;100.00;97855.38;15267955;19;20006;-50
2023/11/12 23:12:58;;;;;;;3.45;1.40;;;;;;;5.59;100.00;97858.06;15268648;19;20056;-55
2023/11/12 23:18:23;;;;;;;2.47;1.38;;;;;;;5.57;100.00;97865.41;15264397;19;20082;-56
2023/11/12 23:23:55;;;;;;;1.83;1.33;;;;;;;5.53;100.00;97863.00;15266244;19;20122;-79
2023/11/12 23:29:23;;;;;;;1.92;1.40;;;;;;;5.51;100.00;97870.31;15272810;19;20039;-78
2023/11/12 23:34:48;;;;;;;1.90;1.67;;;;;;;5.45;100.00;97864.69;15276672;19;20026;-77
2023/11/12 23:40:16;;;;;;;3.33;1.50;;;;;;;5.43;100.00;97866.66;15274056;19;20048;-80
2023/11/12 23:45:43;;;;;;;1.42;1.30;;;;;;;5.41;100.00;97880.19;15278664;19;20022;-83
2023/11/12 23:51:09;;;;;;;2.45;1.58;;;;;;;5.40;100.00;97894.50;15021922;19;5000717;-81
2023/11/12 23:56:33;;;;;;;2.05;1.30;;;;;;;5.41;100.00;97885.53;15279357;19;20021;-83
